sensor_id;sensor_type;location;lat;lon;timestamp;pressure;altitude;pressure_sealevel;temperature;humidity
58668;BME280;59852;43.086;25.634;2023-04-10T00:00:23;99084.88;;;9.89;55.34
58668;BME280;59852;43.086;25.634;2023-04-10T00:02:48;99073.34;;;9.78;56.20
58668;BME280;59852;43.086;25.634;2023-04-10T00:05:14;99071.41;;;9.54;55.93
58668;BME280;59852;43.086;25.634;2023-04-10T00:07:40;99082.16;;;9.49;56.15
58668;BME280;59852;43.086;25.634;2023-04-10T00:10:05;99069.19;;;9.47;55.87
58668;BME280;59852;43.086;25.634;2023-04-10T00:12:31;99070.59;;;9.39;55.88
58668;BME280;59852;43.086;25.634;2023-04-10T00:14:56;99066.00;;;9.57;55.98
58668;BME280;59852;43.086;25.634;2023-04-10T00:17:22;99068.72;;;9.55;56.34
58668;BME280;59852;43.086;25.634;2023-04-10T00:19:47;99069.19;;;9.47;57.04
58668;BME280;59852;43.086;25.634;2023-04-10T00:22:12;99065.94;;;9.44;57.33
58668;BME280;59852;43.086;25.634;2023-04-10T00:24:38;99064.53;;;9.38;57.29
58668;BME280;59852;43.086;25.634;2023-04-10T00:27:03;99060.78;;;9.42;57.70
58668;BME280;59852;43.086;25.634;2023-04-10T00:29:28;99064.16;;;9.30;57.41
58668;BME280;59852;43.086;25.634;2023-04-10T00:31:54;99052.47;;;9.50;57.82
58668;BME280;59852;43.086;25.634;2023-04-10T00:34:19;99061.28;;;9.35;58.10
58668;BME280;59852;43.086;25.634;2023-04-10T00:36:45;99058.72;;;9.33;58.04
58668;BME280;59852;43.086;25.634;2023-04-10T00:39:11;99054.25;;;9.21;57.94
58668;BME280;59852;43.086;25.634;2023-04-10T00:41:36;99048.38;;;9.32;57.28
58668;BME280;59852;43.086;25.634;2023-04-10T00:44:02;99052.50;;;9.36;57.81
58668;BME280;59852;43.086;25.634;2023-04-10T00:46:27;99052.59;;;9.20;57.51
58668;BME280;59852;43.086;25.634;2023-04-10T00:48:53;99050.06;;;9.33;57.87
58668;BME280;59852;43.086;25.634;2023-04-10T00:51:18;99039.53;;;9.20;58.34
58668;BME280;59852;43.086;25.634;2023-04-10T00:53:49;99045.06;;;9.15;58.63
58668;BME280;59852;43.086;25.634;2023-04-10T00:56:15;99048.22;;;9.06;58.93
58668;BME280;59852;43.086;25.634;2023-04-10T00:58:41;99039.47;;;9.07;58.60
58668;BME280;59852;43.086;25.634;2023-04-10T01:01:06;99035.63;;;8.99;59.21
58668;BME280;59852;43.086;25.634;2023-04-10T01:03:32;99036.06;;;8.91;61.57
58668;BME280;59852;43.086;25.634;2023-04-10T01:08:35;99043.94;;;9.05;62.17
58668;BME280;59852;43.086;25.634;2023-04-10T01:11:04;99044.56;;;8.95;61.62
58668;BME280;59852;43.086;25.634;2023-04-10T01:18:33;99037.72;;;8.63;62.31
58668;BME280;59852;43.086;25.634;2023-04-10T01:21:01;99030.03;;;8.90;62.09
58668;BME280;59852;43.086;25.634;2023-04-10T01:23:40;99038.28;;;8.69;62.06
58668;BME280;59852;43.086;25.634;2023-04-10T01:26:09;99035.28;;;8.60;62.01
58668;BME280;59852;43.086;25.634;2023-04-10T01:31:15;99036.34;;;8.42;62.09
58668;BME280;59852;43.086;25.634;2023-04-10T01:33:45;99041.00;;;8.37;62.26
58668;BME280;59852;43.086;25.634;2023-04-10T01:36:12;99031.28;;;7.93;63.93
58668;BME280;59852;43.086;25.634;2023-04-10T01:38:41;99042.94;;;8.18;62.42
58668;BME280;59852;43.086;25.634;2023-04-10T01:41:08;99038.09;;;8.57;61.56
58668;BME280;59852;43.086;25.634;2023-04-10T01:43:33;99040.19;;;8.05;62.53
58668;BME280;59852;43.086;25.634;2023-04-10T01:45:59;99037.56;;;8.21;61.88
58668;BME280;59852;43.086;25.634;2023-04-10T01:48:26;99041.94;;;8.36;60.82
58668;BME280;59852;43.086;25.634;2023-04-10T01:50:51;99044.28;;;8.41;61.17
58668;BME280;59852;43.086;25.634;2023-04-10T01:53:18;99038.22;;;8.40;60.87
58668;BME280;59852;43.086;25.634;2023-04-10T01:55:44;99033.50;;;8.47;60.81
58668;BME280;59852;43.086;25.634;2023-04-10T01:58:10;99035.91;;;8.50;60.78
58668;BME280;59852;43.086;25.634;2023-04-10T02:00:36;99040.84;;;8.54;61.14
58668;BME280;59852;43.086;25.634;2023-04-10T02:03:02;99044.19;;;8.26;61.77
58668;BME280;59852;43.086;25.634;2023-04-10T02:05:28;99035.53;;;8.26;61.93
58668;BME280;59852;43.086;25.634;2023-04-10T02:08:01;99043.34;;;8.42;61.64
58668;BME280;59852;43.086;25.634;2023-04-10T02:10:31;99039.53;;;8.31;61.75
58668;BME280;59852;43.086;25.634;2023-04-10T02:13:02;99040.47;;;8.30;62.40
58668;BME280;59852;43.086;25.634;2023-04-10T02:15:30;99042.16;;;8.31;61.79
58668;BME280;59852;43.086;25.634;2023-04-10T02:17:58;99037.69;;;8.33;61.97
58668;BME280;59852;43.086;25.634;2023-04-10T02:20:24;99043.28;;;8.27;62.34
58668;BME280;59852;43.086;25.634;2023-04-10T02:22:50;99037.16;;;8.13;63.35
58668;BME280;59852;43.086;25.634;2023-04-10T02:25:17;99038.31;;;8.23;62.93
58668;BME280;59852;43.086;25.634;2023-04-10T02:27:42;99033.28;;;8.20;62.40
58668;BME280;59852;43.086;25.634;2023-04-10T02:30:09;99037.16;;;8.13;62.72
58668;BME280;59852;43.086;25.634;2023-04-10T02:32:34;99037.44;;;7.92;63.49
58668;BME280;59852;43.086;25.634;2023-04-10T02:35:00;99035.03;;;8.19;62.92
58668;BME280;59852;43.086;25.634;2023-04-10T02:37:26;99037.50;;;8.07;63.54
58668;BME280;59852;43.086;25.634;2023-04-10T02:39:52;99040.59;;;8.13;63.54
58668;BME280;59852;43.086;25.634;2023-04-10T02:42:18;99044.06;;;7.82;63.62
58668;BME280;59852;43.086;25.634;2023-04-10T02:44:44;99038.34;;;7.91;64.09
58668;BME280;59852;43.086;25.634;2023-04-10T02:47:09;99037.03;;;7.68;65.53
58668;BME280;59852;43.086;25.634;2023-04-10T02:49:35;99031.22;;;7.79;64.76
58668;BME280;59852;43.086;25.634;2023-04-10T02:52:00;99037.91;;;7.36;66.46
58668;BME280;59852;43.086;25.634;2023-04-10T02:54:26;99039.13;;;7.62;66.42
58668;BME280;59852;43.086;25.634;2023-04-10T02:56:51;99038.94;;;7.49;66.84
58668;BME280;59852;43.086;25.634;2023-04-10T02:59:17;99044.44;;;7.27;67.65
58668;BME280;59852;43.086;25.634;2023-04-10T03:01:42;99043.81;;;7.55;67.22
58668;BME280;59852;43.086;25.634;2023-04-10T03:04:07;99049.34;;;7.33;67.49
58668;BME280;59852;43.086;25.634;2023-04-10T03:06:33;99042.19;;;7.37;67.59
58668;BME280;59852;43.086;25.634;2023-04-10T03:08:58;99046.56;;;7.36;67.49
58668;BME280;59852;43.086;25.634;2023-04-10T03:11:23;99048.56;;;7.31;67.34
58668;BME280;59852;43.086;25.634;2023-04-10T03:13:49;99056.56;;;7.44;66.89
58668;BME280;59852;43.086;25.634;2023-04-10T03:16:14;99047.34;;;7.54;66.25
58668;BME280;59852;43.086;25.634;2023-04-10T03:18:41;99050.09;;;7.35;67.32
58668;BME280;59852;43.086;25.634;2023-04-10T03:21:07;99061.09;;;7.40;67.42
58668;BME280;59852;43.086;25.634;2023-04-10T03:23:32;99055.66;;;7.12;68.06
58668;BME280;59852;43.086;25.634;2023-04-10T03:25:57;99058.28;;;7.12;68.21
58668;BME280;59852;43.086;25.634;2023-04-10T03:28:23;99058.50;;;7.07;68.00
58668;BME280;59852;43.086;25.634;2023-04-10T03:30:48;99058.44;;;7.09;68.14
58668;BME280;59852;43.086;25.634;2023-04-10T03:33:14;99063.88;;;6.87;69.17
58668;BME280;59852;43.086;25.634;2023-04-10T03:35:40;99062.47;;;7.14;68.91
58668;BME280;59852;43.086;25.634;2023-04-10T03:38:05;99068.50;;;7.15;68.66
58668;BME280;59852;43.086;25.634;2023-04-10T03:40:30;99067.38;;;7.03;69.03
58668;BME280;59852;43.086;25.634;2023-04-10T03:42:58;99060.81;;;6.96;69.33
58668;BME280;59852;43.086;25.634;2023-04-10T03:45:23;99066.34;;;6.73;69.67
58668;BME280;59852;43.086;25.634;2023-04-10T03:47:48;99062.44;;;6.81;69.75
58668;BME280;59852;43.086;25.634;2023-04-10T03:50:13;99071.75;;;7.03;69.18
58668;BME280;59852;43.086;25.634;2023-04-10T03:52:39;99070.63;;;7.24;68.85
58668;BME280;59852;43.086;25.634;2023-04-10T03:55:05;99077.41;;;7.11;69.18
58668;BME280;59852;43.086;25.634;2023-04-10T03:57:30;99074.53;;;7.15;69.12
58668;BME280;59852;43.086;25.634;2023-04-10T03:59:56;99072.75;;;7.00;68.30
58668;BME280;59852;43.086;25.634;2023-04-10T04:02:21;99076.94;;;7.03;69.21
58668;BME280;59852;43.086;25.634;2023-04-10T04:04:46;99064.63;;;7.06;68.59
58668;BME280;59852;43.086;25.634;2023-04-10T04:07:12;99066.63;;;7.01;68.68
58668;BME280;59852;43.086;25.634;2023-04-10T04:09:37;99069.16;;;7.03;69.20
58668;BME280;59852;43.086;25.634;2023-04-10T04:12:03;99074.88;;;7.09;68.20
58668;BME280;59852;43.086;25.634;2023-04-10T04:14:28;99077.00;;;7.18;68.32
58668;BME280;59852;43.086;25.634;2023-04-10T04:16:54;99074.50;;;7.33;68.76
58668;BME280;59852;43.086;25.634;2023-04-10T04:19:19;99077.91;;;7.17;68.78
58668;BME280;59852;43.086;25.634;2023-04-10T04:21:44;99084.72;;;7.20;68.30
58668;BME280;59852;43.086;25.634;2023-04-10T04:24:10;99082.81;;;7.06;69.02
58668;BME280;59852;43.086;25.634;2023-04-10T04:26:35;99082.03;;;6.54;71.21
58668;BME280;59852;43.086;25.634;2023-04-10T04:29:00;99083.63;;;6.74;71.75
58668;BME280;59852;43.086;25.634;2023-04-10T04:31:26;99076.44;;;6.79;70.77
58668;BME280;59852;43.086;25.634;2023-04-10T04:33:56;99081.09;;;6.55;71.60
58668;BME280;59852;43.086;25.634;2023-04-10T04:36:21;99078.22;;;6.61;70.98
58668;BME280;59852;43.086;25.634;2023-04-10T04:38:47;99085.38;;;6.73;70.80
58668;BME280;59852;43.086;25.634;2023-04-10T04:41:12;99089.75;;;6.90;70.63
58668;BME280;59852;43.086;25.634;2023-04-10T04:43:37;99086.31;;;6.89;70.92
58668;BME280;59852;43.086;25.634;2023-04-10T04:46:03;99094.03;;;6.91;72.48
58668;BME280;59852;43.086;25.634;2023-04-10T04:48:28;99088.19;;;7.03;70.82
58668;BME280;59852;43.086;25.634;2023-04-10T04:50:54;99087.81;;;6.94;70.84
58668;BME280;59852;43.086;25.634;2023-04-10T04:53:19;99087.06;;;6.74;71.23
58668;BME280;59852;43.086;25.634;2023-04-10T04:55:45;99085.38;;;6.90;71.20
58668;BME280;59852;43.086;25.634;2023-04-10T04:58:10;99092.84;;;7.14;70.92
58668;BME280;59852;43.086;25.634;2023-04-10T05:00:35;99095.13;;;7.20;70.22
58668;BME280;59852;43.086;25.634;2023-04-10T05:03:01;99092.03;;;6.61;71.32
58668;BME280;59852;43.086;25.634;2023-04-10T05:05:26;99096.00;;;7.03;70.99
58668;BME280;59852;43.086;25.634;2023-04-10T05:07:51;99094.09;;;6.89;71.45
58668;BME280;59852;43.086;25.634;2023-04-10T05:10:17;99091.44;;;6.91;71.82
58668;BME280;59852;43.086;25.634;2023-04-10T05:12:42;99099.69;;;6.99;70.88
58668;BME280;59852;43.086;25.634;2023-04-10T05:15:08;99100.94;;;7.08;70.89
58668;BME280;59852;43.086;25.634;2023-04-10T05:17:33;99102.66;;;7.09;70.39
58668;BME280;59852;43.086;25.634;2023-04-10T05:19:59;99105.84;;;7.14;70.89
58668;BME280;59852;43.086;25.634;2023-04-10T05:22:24;99100.59;;;7.64;70.12
58668;BME280;59852;43.086;25.634;2023-04-10T05:24:51;99099.59;;;7.83;69.24
58668;BME280;59852;43.086;25.634;2023-04-10T05:27:17;99101.06;;;7.55;69.39
58668;BME280;59852;43.086;25.634;2023-04-10T05:29:42;99101.00;;;7.24;70.69
58668;BME280;59852;43.086;25.634;2023-04-10T05:32:07;99103.69;;;7.22;70.77
58668;BME280;59852;43.086;25.634;2023-04-10T05:34:33;99103.44;;;7.60;69.77
58668;BME280;59852;43.086;25.634;2023-04-10T05:36:58;99105.13;;;7.61;69.52
58668;BME280;59852;43.086;25.634;2023-04-10T05:39:25;99099.06;;;6.77;70.66
58668;BME280;59852;43.086;25.634;2023-04-10T05:41:50;99105.53;;;7.20;71.32
58668;BME280;59852;43.086;25.634;2023-04-10T05:44:15;99106.34;;;6.70;71.11
58668;BME280;59852;43.086;25.634;2023-04-10T05:46:41;99108.72;;;7.25;71.12
58668;BME280;59852;43.086;25.634;2023-04-10T05:49:06;99108.31;;;7.00;71.61
58668;BME280;59852;43.086;25.634;2023-04-10T05:51:31;99114.16;;;7.38;70.55
58668;BME280;59852;43.086;25.634;2023-04-10T05:53:57;99111.97;;;6.96;70.54
58668;BME280;59852;43.086;25.634;2023-04-10T05:56:22;99110.00;;;7.18;71.48
58668;BME280;59852;43.086;25.634;2023-04-10T05:58:47;99107.38;;;7.51;70.82
58668;BME280;59852;43.086;25.634;2023-04-10T06:01:12;99103.06;;;7.99;69.25
58668;BME280;59852;43.086;25.634;2023-04-10T06:03:38;99106.81;;;7.93;69.37
58668;BME280;59852;43.086;25.634;2023-04-10T06:06:05;99103.63;;;8.04;69.13
58668;BME280;59852;43.086;25.634;2023-04-10T06:08:31;99101.03;;;8.20;69.01
58668;BME280;59852;43.086;25.634;2023-04-10T06:10:56;99103.63;;;8.20;68.39
58668;BME280;59852;43.086;25.634;2023-04-10T06:13:21;99089.41;;;8.25;68.87
58668;BME280;59852;43.086;25.634;2023-04-10T06:15:48;99100.69;;;7.94;69.48
58668;BME280;59852;43.086;25.634;2023-04-10T06:18:13;99108.22;;;7.52;70.94
58668;BME280;59852;43.086;25.634;2023-04-10T06:20:38;99102.03;;;8.01;70.63
58668;BME280;59852;43.086;25.634;2023-04-10T06:23:04;99097.56;;;8.19;69.77
58668;BME280;59852;43.086;25.634;2023-04-10T06:25:29;99103.53;;;8.05;69.74
58668;BME280;59852;43.086;25.634;2023-04-10T06:27:55;99093.63;;;8.28;70.19
58668;BME280;59852;43.086;25.634;2023-04-10T06:30:20;99089.16;;;8.30;68.99
58668;BME280;59852;43.086;25.634;2023-04-10T06:32:46;99096.31;;;8.42;69.56
58668;BME280;59852;43.086;25.634;2023-04-10T06:35:11;99092.69;;;8.45;69.03
58668;BME280;59852;43.086;25.634;2023-04-10T06:37:37;99092.25;;;8.52;68.23
58668;BME280;59852;43.086;25.634;2023-04-10T06:40:03;99094.94;;;8.51;68.59
58668;BME280;59852;43.086;25.634;2023-04-10T06:42:28;99092.38;;;8.65;68.57
58668;BME280;59852;43.086;25.634;2023-04-10T06:44:54;99098.06;;;8.42;68.13
58668;BME280;59852;43.086;25.634;2023-04-10T06:47:19;99085.44;;;8.80;67.95
58668;BME280;59852;43.086;25.634;2023-04-10T06:49:45;99095.00;;;9.09;66.94
58668;BME280;59852;43.086;25.634;2023-04-10T06:52:10;99092.88;;;8.72;68.00
58668;BME280;59852;43.086;25.634;2023-04-10T06:54:35;99098.00;;;9.17;67.15
58668;BME280;59852;43.086;25.634;2023-04-10T06:57:01;99100.50;;;9.05;67.82
58668;BME280;59852;43.086;25.634;2023-04-10T06:59:27;99102.66;;;9.27;66.81
58668;BME280;59852;43.086;25.634;2023-04-10T07:01:53;99096.69;;;9.25;67.13
58668;BME280;59852;43.086;25.634;2023-04-10T07:04:18;99101.16;;;9.23;67.86
58668;BME280;59852;43.086;25.634;2023-04-10T07:06:43;99109.63;;;8.98;67.67
58668;BME280;59852;43.086;25.634;2023-04-10T07:09:09;99110.75;;;9.22;67.65
58668;BME280;59852;43.086;25.634;2023-04-10T07:11:34;99108.25;;;9.49;66.74
58668;BME280;59852;43.086;25.634;2023-04-10T07:13:59;99115.69;;;9.69;66.47
58668;BME280;59852;43.086;25.634;2023-04-10T07:16:25;99108.06;;;9.52;66.32
58668;BME280;59852;43.086;25.634;2023-04-10T07:18:51;99107.22;;;9.66;65.51
58668;BME280;59852;43.086;25.634;2023-04-10T07:21:16;99106.38;;;9.80;64.58
58668;BME280;59852;43.086;25.634;2023-04-10T07:23:42;99105.25;;;10.11;63.93
58668;BME280;59852;43.086;25.634;2023-04-10T07:26:07;99103.50;;;10.25;63.55
58668;BME280;59852;43.086;25.634;2023-04-10T07:28:32;99100.19;;;10.36;62.16
58668;BME280;59852;43.086;25.634;2023-04-10T07:30:58;99104.31;;;10.12;61.84
58668;BME280;59852;43.086;25.634;2023-04-10T07:33:23;99099.34;;;10.36;61.32
58668;BME280;59852;43.086;25.634;2023-04-10T07:35:48;99093.41;;;10.99;58.10
58668;BME280;59852;43.086;25.634;2023-04-10T07:38:14;99082.50;;;10.67;56.75
58668;BME280;59852;43.086;25.634;2023-04-10T07:40:39;99095.34;;;10.57;57.60
58668;BME280;59852;43.086;25.634;2023-04-10T07:43:04;99084.94;;;10.43;57.82
58668;BME280;59852;43.086;25.634;2023-04-10T07:45:30;99080.63;;;10.42;57.20
58668;BME280;59852;43.086;25.634;2023-04-10T07:47:55;99088.31;;;10.57;57.64
58668;BME280;59852;43.086;25.634;2023-04-10T07:50:22;99081.38;;;10.83;55.14
58668;BME280;59852;43.086;25.634;2023-04-10T07:52:47;99084.00;;;11.34;55.52
58668;BME280;59852;43.086;25.634;2023-04-10T07:55:13;99081.91;;;11.39;54.84
58668;BME280;59852;43.086;25.634;2023-04-10T07:57:39;99085.03;;;11.19;55.12
58668;BME280;59852;43.086;25.634;2023-04-10T08:00:05;99082.31;;;10.82;54.97
58668;BME280;59852;43.086;25.634;2023-04-10T08:02:30;99082.94;;;10.73;55.67
58668;BME280;59852;43.086;25.634;2023-04-10T08:04:55;99086.16;;;10.77;57.65
58668;BME280;59852;43.086;25.634;2023-04-10T08:07:21;99072.25;;;10.76;56.78
58668;BME280;59852;43.086;25.634;2023-04-10T08:09:46;99078.97;;;10.93;56.89
58668;BME280;59852;43.086;25.634;2023-04-10T08:12:12;99085.34;;;10.76;56.45
58668;BME280;59852;43.086;25.634;2023-04-10T08:14:37;99083.78;;;10.86;56.07
58668;BME280;59852;43.086;25.634;2023-04-10T08:17:02;99081.72;;;10.91;56.51
58668;BME280;59852;43.086;25.634;2023-04-10T08:19:28;99084.09;;;11.20;55.32
58668;BME280;59852;43.086;25.634;2023-04-10T08:21:53;99084.53;;;11.52;55.23
58668;BME280;59852;43.086;25.634;2023-04-10T08:24:18;99086.84;;;11.31;54.95
58668;BME280;59852;43.086;25.634;2023-04-10T08:26:46;99089.75;;;11.39;54.92
58668;BME280;59852;43.086;25.634;2023-04-10T08:29:12;99083.47;;;11.55;54.24
58668;BME280;59852;43.086;25.634;2023-04-10T08:31:37;99072.66;;;11.59;54.99
58668;BME280;59852;43.086;25.634;2023-04-10T08:34:03;99064.72;;;11.97;54.68
58668;BME280;59852;43.086;25.634;2023-04-10T08:36:28;99063.00;;;11.85;53.74
58668;BME280;59852;43.086;25.634;2023-04-10T08:38:55;99060.94;;;12.01;53.61
58668;BME280;59852;43.086;25.634;2023-04-10T08:41:20;99060.28;;;12.34;52.47
58668;BME280;59852;43.086;25.634;2023-04-10T08:43:46;99051.44;;;12.35;51.91
58668;BME280;59852;43.086;25.634;2023-04-10T08:46:12;99052.06;;;11.78;53.22
58668;BME280;59852;43.086;25.634;2023-04-10T08:48:40;99041.78;;;11.88;53.64
58668;BME280;59852;43.086;25.634;2023-04-10T08:51:11;99037.88;;;12.88;52.11
58668;BME280;59852;43.086;25.634;2023-04-10T08:53:38;99029.66;;;12.81;51.08
58668;BME280;59852;43.086;25.634;2023-04-10T08:56:05;99026.28;;;13.48;49.94
58668;BME280;59852;43.086;25.634;2023-04-10T08:58:31;99023.63;;;13.59;49.39
58668;BME280;59852;43.086;25.634;2023-04-10T09:00:56;99022.44;;;13.18;49.89
58668;BME280;59852;43.086;25.634;2023-04-10T09:03:22;99021.94;;;13.13;50.97
58668;BME280;59852;43.086;25.634;2023-04-10T09:05:48;99014.09;;;13.47;49.71
58668;BME280;59852;43.086;25.634;2023-04-10T09:08:13;99005.22;;;13.03;49.62
58668;BME280;59852;43.086;25.634;2023-04-10T09:10:39;98996.91;;;13.20;50.33
58668;BME280;59852;43.086;25.634;2023-04-10T09:13:04;98995.22;;;13.19;50.78
58668;BME280;59852;43.086;25.634;2023-04-10T09:15:30;98988.75;;;13.01;50.23
58668;BME280;59852;43.086;25.634;2023-04-10T09:18:15;99000.38;;;12.63;50.98
58668;BME280;59852;43.086;25.634;2023-04-10T09:20:40;99002.84;;;13.11;50.35
58668;BME280;59852;43.086;25.634;2023-04-10T09:23:18;98987.66;;;12.81;49.50
58668;BME280;59852;43.086;25.634;2023-04-10T09:25:44;98982.72;;;12.66;50.51
58668;BME280;59852;43.086;25.634;2023-04-10T09:28:09;98978.50;;;13.09;50.03
58668;BME280;59852;43.086;25.634;2023-04-10T09:30:37;98974.31;;;13.18;49.31
58668;BME280;59852;43.086;25.634;2023-04-10T09:33:20;98977.88;;;12.95;50.30
58668;BME280;59852;43.086;25.634;2023-04-10T09:35:45;98978.00;;;12.93;50.11
58668;BME280;59852;43.086;25.634;2023-04-10T09:38:14;98971.53;;;12.63;52.05
58668;BME280;59852;43.086;25.634;2023-04-10T09:40:43;98964.97;;;12.69;51.86
58668;BME280;59852;43.086;25.634;2023-04-10T09:46:04;98950.91;;;12.70;52.51
58668;BME280;59852;43.086;25.634;2023-04-10T09:48:29;98956.28;;;12.69;52.40
58668;BME280;59852;43.086;25.634;2023-04-10T09:50:55;98954.81;;;12.53;52.93
58668;BME280;59852;43.086;25.634;2023-04-10T09:53:21;98949.94;;;12.60;51.96
58668;BME280;59852;43.086;25.634;2023-04-10T09:55:47;98947.78;;;12.54;53.33
58668;BME280;59852;43.086;25.634;2023-04-10T09:58:13;98943.94;;;12.58;53.46
58668;BME280;59852;43.086;25.634;2023-04-10T10:00:43;98946.69;;;12.68;52.64
58668;BME280;59852;43.086;25.634;2023-04-10T10:03:10;98949.81;;;12.73;53.21
58668;BME280;59852;43.086;25.634;2023-04-10T10:05:39;98948.16;;;12.83;52.37
58668;BME280;59852;43.086;25.634;2023-04-10T10:08:05;98943.16;;;13.36;50.65
58668;BME280;59852;43.086;25.634;2023-04-10T10:10:31;98934.03;;;13.62;50.34
58668;BME280;59852;43.086;25.634;2023-04-10T10:13:00;98933.47;;;13.36;48.68
58668;BME280;59852;43.086;25.634;2023-04-10T10:15:37;98936.59;;;12.74;50.60
58668;BME280;59852;43.086;25.634;2023-04-10T10:20:37;98930.28;;;12.99;49.40
58668;BME280;59852;43.086;25.634;2023-04-10T10:23:05;98925.50;;;12.59;49.04
58668;BME280;59852;43.086;25.634;2023-04-10T10:25:32;98927.75;;;12.64;49.66
58668;BME280;59852;43.086;25.634;2023-04-10T10:27:58;98920.00;;;12.96;50.23
58668;BME280;59852;43.086;25.634;2023-04-10T10:30:27;98914.25;;;13.13;50.02
58668;BME280;59852;43.086;25.634;2023-04-10T10:32:52;98912.38;;;12.59;50.27
58668;BME280;59852;43.086;25.634;2023-04-10T10:35:18;98907.94;;;13.05;50.12
58668;BME280;59852;43.086;25.634;2023-04-10T10:37:43;98910.94;;;13.00;49.99
58668;BME280;59852;43.086;25.634;2023-04-10T10:45:36;98908.06;;;13.03;50.17
58668;BME280;59852;43.086;25.634;2023-04-10T10:48:05;98902.00;;;12.91;50.35
58668;BME280;59852;43.086;25.634;2023-04-10T10:50:53;98907.59;;;12.98;50.60
58668;BME280;59852;43.086;25.634;2023-04-10T10:58:49;98888.25;;;12.88;51.00
58668;BME280;59852;43.086;25.634;2023-04-10T11:01:15;98890.78;;;12.78;50.94
58668;BME280;59852;43.086;25.634;2023-04-10T11:03:40;98895.66;;;12.72;51.54
58668;BME280;59852;43.086;25.634;2023-04-10T11:06:08;98896.13;;;12.66;50.62
58668;BME280;59852;43.086;25.634;2023-04-10T11:08:49;98886.97;;;12.71;49.27
58668;BME280;59852;43.086;25.634;2023-04-10T11:11:17;98885.41;;;12.69;49.35
58668;BME280;59852;43.086;25.634;2023-04-10T11:21:25;98887.91;;;12.81;50.30
58668;BME280;59852;43.086;25.634;2023-04-10T11:29:06;98867.75;;;12.59;51.86
58668;BME280;59852;43.086;25.634;2023-04-10T11:34:18;98866.53;;;12.86;48.99
58668;BME280;59852;43.086;25.634;2023-04-10T11:36:44;98862.84;;;13.00;47.90
58668;BME280;59852;43.086;25.634;2023-04-10T11:39:10;98866.78;;;12.94;47.12
58668;BME280;59852;43.086;25.634;2023-04-10T11:41:38;98859.47;;;12.98;46.38
58668;BME280;59852;43.086;25.634;2023-04-10T11:44:05;98855.78;;;13.11;44.92
58668;BME280;59852;43.086;25.634;2023-04-10T11:46:34;98848.03;;;13.21;44.63
58668;BME280;59852;43.086;25.634;2023-04-10T11:49:02;98844.09;;;12.93;44.39
58668;BME280;59852;43.086;25.634;2023-04-10T11:51:27;98839.19;;;13.22;44.58
58668;BME280;59852;43.086;25.634;2023-04-10T11:56:34;98835.56;;;13.34;44.77
58668;BME280;59852;43.086;25.634;2023-04-10T11:58:59;98837.91;;;13.48;45.83
58668;BME280;59852;43.086;25.634;2023-04-10T12:01:26;98831.41;;;13.32;44.57
58668;BME280;59852;43.086;25.634;2023-04-10T12:03:51;98831.28;;;13.33;44.64
58668;BME280;59852;43.086;25.634;2023-04-10T12:06:17;98825.66;;;13.38;45.90
58668;BME280;59852;43.086;25.634;2023-04-10T12:08:46;98825.63;;;13.49;46.60
58668;BME280;59852;43.086;25.634;2023-04-10T12:11:33;98810.75;;;13.27;46.83
58668;BME280;59852;43.086;25.634;2023-04-10T12:13:58;98821.06;;;13.51;46.82
58668;BME280;59852;43.086;25.634;2023-04-10T12:16:24;98816.66;;;13.72;47.28
58668;BME280;59852;43.086;25.634;2023-04-10T12:18:50;98810.03;;;13.14;46.87
58668;BME280;59852;43.086;25.634;2023-04-10T12:21:16;98811.59;;;13.60;47.61
58668;BME280;59852;43.086;25.634;2023-04-10T12:23:41;98810.72;;;13.38;48.26
58668;BME280;59852;43.086;25.634;2023-04-10T12:28:39;98800.63;;;13.23;48.57
58668;BME280;59852;43.086;25.634;2023-04-10T12:31:04;98802.94;;;13.37;48.59
58668;BME280;59852;43.086;25.634;2023-04-10T12:33:30;98803.69;;;13.39;48.98
58668;BME280;59852;43.086;25.634;2023-04-10T12:35:55;98800.06;;;13.19;48.73
58668;BME280;59852;43.086;25.634;2023-04-10T12:38:33;98797.88;;;13.24;49.30
58668;BME280;59852;43.086;25.634;2023-04-10T12:40:59;98797.34;;;13.41;49.54
58668;BME280;59852;43.086;25.634;2023-04-10T12:45:56;98787.25;;;13.14;49.25
58668;BME280;59852;43.086;25.634;2023-04-10T12:48:22;98781.75;;;13.17;49.51
58668;BME280;59852;43.086;25.634;2023-04-10T12:50:47;98781.84;;;13.27;50.23
58668;BME280;59852;43.086;25.634;2023-04-10T12:53:13;98777.31;;;13.29;51.42
58668;BME280;59852;43.086;25.634;2023-04-10T12:55:38;98778.38;;;13.38;50.69
58668;BME280;59852;43.086;25.634;2023-04-10T12:58:16;98768.63;;;13.17;50.40
58668;BME280;59852;43.086;25.634;2023-04-10T13:00:42;98767.81;;;13.06;50.24
58668;BME280;59852;43.086;25.634;2023-04-10T13:03:07;98764.94;;;13.20;49.54
58668;BME280;59852;43.086;25.634;2023-04-10T13:05:33;98766.84;;;13.18;49.35
58668;BME280;59852;43.086;25.634;2023-04-10T13:07:58;98760.66;;;13.19;49.19
58668;BME280;59852;43.086;25.634;2023-04-10T13:10:23;98766.47;;;13.23;49.39
58668;BME280;59852;43.086;25.634;2023-04-10T13:12:49;98770.72;;;13.35;49.19
58668;BME280;59852;43.086;25.634;2023-04-10T13:15:14;98765.03;;;13.30;49.22
58668;BME280;59852;43.086;25.634;2023-04-10T13:17:40;98766.25;;;13.46;48.61
58668;BME280;59852;43.086;25.634;2023-04-10T13:20:06;98767.81;;;13.49;48.53
58668;BME280;59852;43.086;25.634;2023-04-10T13:22:32;98748.69;;;13.15;48.01
58668;BME280;59852;43.086;25.634;2023-04-10T13:24:57;98747.59;;;13.29;48.72
58668;BME280;59852;43.086;25.634;2023-04-10T13:27:23;98749.25;;;13.30;47.94
58668;BME280;59852;43.086;25.634;2023-04-10T13:29:48;98739.47;;;13.32;47.73
58668;BME280;59852;43.086;25.634;2023-04-10T13:32:14;98747.59;;;13.29;46.88
58668;BME280;59852;43.086;25.634;2023-04-10T13:34:39;98741.00;;;13.34;48.46
58668;BME280;59852;43.086;25.634;2023-04-10T13:37:04;98747.63;;;13.06;48.76
58668;BME280;59852;43.086;25.634;2023-04-10T13:39:30;98746.59;;;12.98;48.75